Time;durP1;ratioP1;P1;durP2;ratioP2;P2;SDS_P1;SDS_P2;PMS_P1;PMS_P2;Temp;Humidity;BMP_temperature;BMP_pressure;BME280_temperature;BME280_humidity;BME280_pressure;Samples;Min_cycle;Max_cycle;Signal;HPM_P1;HPM_P2
2021/01/01 00:01:57;;;;;;;20.23;15.90;;;4.50;99.90;;;;;;5069112;28;20185;-59
2021/01/01 00:04:22;;;;;;;17.33;14.13;;;4.70;99.90;;;;;;5069106;28;20181;-59
2021/01/01 00:06:50;;;;;;;15.13;13.53;;;4.90;99.90;;;;;;5068840;28;20210;-59
2021/01/01 00:09:17;;;;;;;17.63;13.57;;;4.70;99.90;;;;;;5068639;28;20239;-59
2021/01/01 00:11:46;;;;;;;17.17;11.82;;;4.70;99.90;;;;;;5068831;28;20196;-58
2021/01/01 00:14:13;;;;;;;10.77;9.68;;;4.60;99.90;;;;;;5063660;28;20188;-59
2021/01/01 00:16:40;;;;;;;18.73;12.52;;;5.00;99.90;;;;;;5068564;28;20182;-59
2021/01/01 00:19:06;;;;;;;14.18;11.90;;;4.90;99.90;;;;;;5069286;28;20190;-60
2021/01/01 00:21:32;;;;;;;15.30;12.17;;;5.00;99.90;;;;;;5068338;28;20188;-59
2021/01/01 00:23:58;;;;;;;16.00;12.80;;;4.90;99.90;;;;;;5068310;28;20773;-59
2021/01/01 00:26:24;;;;;;;15.30;12.10;;;5.00;99.90;;;;;;5068521;28;20193;-60
2021/01/01 00:28:50;;;;;;;14.50;11.20;;;4.90;99.90;;;;;;5068357;28;20665;-59
2021/01/01 00:31:17;;;;;;;12.57;11.25;;;5.10;99.90;;;;;;5059233;28;20468;-58
2021/01/01 00:33:43;;;;;;;14.20;10.90;;;5.10;99.90;;;;;;5068713;28;20219;-58
2021/01/01 00:36:09;;;;;;;12.50;11.07;;;5.00;99.90;;;;;;5068459;28;20272;-59
2021/01/01 00:38:36;;;;;;;14.10;10.80;;;4.70;99.90;;;;;;5068361;28;20488;-59
2021/01/01 00:41:02;;;;;;;12.70;11.38;;;4.70;99.90;;;;;;5068290;28;20312;-59
2021/01/01 00:43:27;;;;;;;13.43;11.47;;;4.90;99.90;;;;;;5065195;28;20279;-60
2021/01/01 00:45:53;;;;;;;11.73;10.23;;;5.10;99.90;;;;;;5066570;28;20192;-60
2021/01/01 00:48:18;;;;;;;16.97;11.97;;;4.80;99.90;;;;;;5067529;28;20233;-60
2021/01/01 00:50:44;;;;;;;12.70;11.00;;;4.80;99.90;;;;;;5068204;28;20208;-59
2021/01/01 00:53:13;;;;;;;14.33;11.57;;;4.90;99.90;;;;;;5068506;28;20189;-59
2021/01/01 00:55:38;;;;;;;13.40;10.52;;;5.00;99.90;;;;;;5068416;28;20185;-59
2021/01/01 00:58:04;;;;;;;13.10;10.50;;;4.90;99.90;;;;;;5068331;28;20201;-59
2021/01/01 01:00:29;;;;;;;11.83;10.23;;;4.90;99.90;;;;;;5068313;28;20195;-59
2021/01/01 01:02:55;;;;;;;12.97;10.10;;;4.80;99.90;;;;;;5068580;28;20578;-59
2021/01/01 01:05:21;;;;;;;10.80;9.70;;;5.00;99.90;;;;;;5067388;28;20216;-59
2021/01/01 01:07:46;;;;;;;13.27;10.57;;;4.80;99.90;;;;;;5067733;28;20578;-59
2021/01/01 01:10:12;;;;;;;10.67;9.20;;;4.90;99.90;;;;;;5067884;28;20416;-59
2021/01/01 01:12:41;;;;;;;12.60;9.18;;;4.60;99.90;;;;;;5068361;28;20572;-59
2021/01/01 01:15:08;;;;;;;12.05;8.88;;;4.80;99.90;;;;;;5068021;28;20240;-59
2021/01/01 01:17:34;;;;;;;11.13;9.77;;;5.00;99.90;;;;;;5068039;28;20238;-59
2021/01/01 01:20:00;;;;;;;11.37;9.60;;;4.80;99.90;;;;;;5067835;28;20221;-59
2021/01/01 01:22:26;;;;;;;9.57;8.30;;;4.80;99.90;;;;;;5067133;28;20537;-59
2021/01/01 01:24:51;;;;;;;10.73;9.43;;;4.80;99.90;;;;;;5073370;28;20190;-59
2021/01/01 01:27:17;;;;;;;10.70;8.53;;;4.90;99.90;;;;;;5064613;28;20300;-59
2021/01/01 01:29:42;;;;;;;10.70;9.37;;;5.10;99.90;;;;;;5067530;28;20682;-59
2021/01/01 01:32:08;;;;;;;10.10;9.10;;;4.80;99.90;;;;;;5067875;28;20205;-59
2021/01/01 01:34:33;;;;;;;11.60;8.30;;;5.00;99.90;;;;;;5062861;28;20604;-59
2021/01/01 01:36:59;;;;;;;10.73;8.43;;;4.90;99.90;;;;;;5059428;28;20683;-59
2021/01/01 01:39:25;;;;;;;10.37;9.37;;;4.90;99.90;;;;;;5066674;28;20208;-59
2021/01/01 01:41:50;;;;;;;9.33;8.27;;;5.40;99.90;;;;;;5067663;28;20188;-58
2021/01/01 01:44:16;;;;;;;10.73;9.73;;;5.20;99.90;;;;;;5067574;28;20185;-59
2021/01/01 01:46:44;;;;;;;9.50;8.40;;;5.30;99.90;;;;;;5067582;28;20230;-59
2021/01/01 01:49:14;;;;;;;10.60;8.00;;;5.40;99.90;;;;;;5067418;28;20273;-59
2021/01/01 01:51:47;;;;;;;10.48;8.60;;;5.30;99.90;;;;;;5067811;28;20191;-59
2021/01/01 01:54:18;;;;;;;10.38;9.25;;;5.40;99.90;;;;;;5054611;28;20182;-59
2021/01/01 01:56:45;;;;;;;11.05;8.68;;;5.50;99.90;;;;;;5066490;28;20210;-59
2021/01/01 01:59:15;;;;;;;10.10;9.00;;;5.30;99.90;;;;;;5067476;28;20183;-59
2021/01/01 02:01:41;;;;;;;9.90;8.85;;;5.00;99.90;;;;;;5067442;28;20651;-59
2021/01/01 02:04:06;;;;;;;8.87;7.97;;;5.20;99.90;;;;;;5067511;28;20192;-59
2021/01/01 02:06:32;;;;;;;10.23;8.77;;;5.30;99.90;;;;;;5067132;28;20432;-59
2021/01/01 02:08:59;;;;;;;9.50;8.27;;;5.00;99.90;;;;;;5067337;28;20682;-59
2021/01/01 02:11:25;;;;;;;11.15;8.70;;;5.20;99.90;;;;;;5067208;28;20214;-59
2021/01/01 02:13:54;;;;;;;12.60;8.73;;;4.90;99.90;;;;;;5065611;28;20284;-59
2021/01/01 02:16:22;;;;;;;11.10;8.52;;;5.10;99.90;;;;;;5061631;28;20673;-58
2021/01/01 02:18:47;;;;;;;9.10;7.60;;;5.30;99.90;;;;;;5066912;28;20216;-59
2021/01/01 02:21:16;;;;;;;9.53;7.60;;;5.40;99.90;;;;;;5070856;28;20224;-58
2021/01/01 02:23:42;;;;;;;11.07;8.55;;;5.30;99.90;;;;;;5071113;28;20418;-59
2021/01/01 02:26:08;;;;;;;9.20;8.25;;;5.60;99.90;;;;;;5070858;28;20880;-59
2021/01/01 02:28:34;;;;;;;9.43;8.40;;;5.40;99.90;;;;;;5070193;28;20296;-59
2021/01/01 02:30:59;;;;;;;12.63;8.50;;;5.30;99.90;;;;;;5070074;28;20217;-59
2021/01/01 02:33:25;;;;;;;9.67;8.47;;;5.30;99.90;;;;;;5071225;28;20185;-59
2021/01/01 02:35:52;;;;;;;9.95;7.75;;;5.10;99.90;;;;;;5070914;28;20181;-59
2021/01/01 02:38:18;;;;;;;9.25;8.05;;;5.10;99.90;;;;;;5070861;28;20254;-59
2021/01/01 02:40:43;;;;;;;10.68;8.93;;;5.00;99.90;;;;;;5070621;28;20244;-59
2021/01/01 02:43:09;;;;;;;10.47;8.63;;;5.00;99.90;;;;;;5072188;28;20602;-59
2021/01/01 02:45:35;;;;;;;11.53;8.33;;;5.20;99.90;;;;;;5067857;28;20450;-59
2021/01/01 02:48:13;;;;;;;9.97;8.80;;;5.00;99.90;;;;;;5070219;28;20229;-59
2021/01/01 02:50:40;;;;;;;9.80;8.90;;;5.20;99.90;;;;;;5070339;28;20215;-59
2021/01/01 02:53:06;;;;;;;10.00;9.00;;;5.10;99.90;;;;;;5070440;28;20173;-59
2021/01/01 02:55:33;;;;;;;11.45;8.57;;;5.30;99.90;;;;;;5070323;28;20195;-59
2021/01/01 02:57:59;;;;;;;10.65;8.23;;;5.20;99.90;;;;;;5070192;28;20264;-59
2021/01/01 03:00:25;;;;;;;11.15;8.77;;;5.20;99.90;;;;;;5070102;28;20563;-59
2021/01/01 03:02:51;;;;;;;12.10;9.48;;;5.30;99.90;;;;;;5069435;28;20662;-59
2021/01/01 03:05:17;;;;;;;11.27;9.00;;;5.30;99.90;;;;;;5070250;28;20193;-59
2021/01/01 03:07:42;;;;;;;11.33;8.57;;;5.10;99.90;;;;;;5070107;28;20965;-59
2021/01/01 03:10:08;;;;;;;10.03;9.00;;;5.20;99.90;;;;;;5069653;28;20684;-59
2021/01/01 03:12:34;;;;;;;9.95;8.20;;;5.10;99.90;;;;;;5069919;28;20223;-59
2021/01/01 03:15:00;;;;;;;10.53;9.50;;;5.10;99.90;;;;;;5063736;28;20209;-59
2021/01/01 03:17:25;;;;;;;11.73;8.30;;;5.20;99.90;;;;;;5069667;28;20201;-59
2021/01/01 03:19:51;;;;;;;9.27;8.30;;;4.90;99.90;;;;;;5067483;28;20204;-59
2021/01/01 03:22:16;;;;;;;12.17;9.23;;;4.90;99.90;;;;;;5061050;28;20659;-59
2021/01/01 03:24:42;;;;;;;10.13;8.83;;;4.90;99.90;;;;;;5069543;28;20225;-59
2021/01/01 03:27:08;;;;;;;13.83;10.07;;;4.90;99.90;;;;;;5069763;28;20637;-59
2021/01/01 03:29:33;;;;;;;10.90;8.80;;;5.10;99.90;;;;;;5069115;28;20223;-59
2021/01/01 03:31:59;;;;;;;11.50;9.57;;;4.90;99.90;;;;;;5069091;28;20557;-59
2021/01/01 03:34:30;;;;;;;12.90;10.17;;;5.00;99.90;;;;;;5070029;28;20182;-59
2021/01/01 03:36:56;;;;;;;11.15;9.30;;;5.20;99.90;;;;;;5068614;28;20207;-59
2021/01/01 03:39:22;;;;;;;13.93;10.77;;;5.20;99.90;;;;;;5069227;28;20183;-59
2021/01/01 03:41:47;;;;;;;12.37;9.23;;;4.90;99.90;;;;;;5069326;28;20382;-59
2021/01/01 03:44:13;;;;;;;11.50;9.50;;;4.70;99.90;;;;;;5069580;28;20191;-59
2021/01/01 03:46:38;;;;;;;13.67;9.93;;;5.00;99.90;;;;;;5069205;28;20289;-59
2021/01/01 03:49:04;;;;;;;14.60;10.60;;;4.80;99.90;;;;;;5069040;28;20232;-59
2021/01/01 03:51:30;;;;;;;14.80;10.30;;;4.70;99.90;;;;;;5069369;28;20660;-59
2021/01/01 03:53:55;;;;;;;14.13;10.60;;;4.70;99.90;;;;;;5068650;28;20682;-59
2021/01/01 03:56:21;;;;;;;14.17;10.97;;;4.90;99.90;;;;;;5069134;28;20186;-59
2021/01/01 03:58:46;;;;;;;14.50;11.17;;;4.70;99.90;;;;;;5068812;28;20194;-59
2021/01/01 04:01:16;;;;;;;14.40;11.63;;;4.60;99.90;;;;;;5069280;28;20462;-59
2021/01/01 04:03:42;;;;;;;16.60;11.85;;;4.60;99.90;;;;;;5069063;28;20196;-59
2021/01/01 04:06:07;;;;;;;13.97;11.10;;;4.70;99.90;;;;;;5069064;28;20182;-59
2021/01/01 04:08:33;;;;;;;13.87;11.60;;;4.40;99.90;;;;;;5068631;28;20227;-59
2021/01/01 04:10:58;;;;;;;16.70;12.13;;;4.60;99.90;;;;;;5067767;28;20217;-59
2021/01/01 04:13:24;;;;;;;15.80;12.40;;;4.40;99.90;;;;;;5068804;28;20242;-59
2021/01/01 04:15:50;;;;;;;15.67;11.07;;;4.30;99.90;;;;;;5068925;28;20177;-59
2021/01/01 04:18:16;;;;;;;16.70;12.63;;;4.60;99.90;;;;;;5068336;28;20567;-59
2021/01/01 04:20:42;;;;;;;16.55;13.88;;;4.30;99.90;;;;;;5068747;28;20189;-57
2021/01/01 04:23:08;;;;;;;21.48;12.40;;;4.50;99.90;;;;;;5068467;28;20245;-59
2021/01/01 04:25:33;;;;;;;15.47;11.23;;;4.30;99.90;;;;;;5068523;28;20199;-59
2021/01/01 04:27:59;;;;;;;15.77;11.07;;;4.60;99.90;;;;;;5065156;28;20205;-59
2021/01/01 04:30:25;;;;;;;15.77;11.13;;;4.40;99.90;;;;;;5059019;28;20214;-59
2021/01/01 04:32:51;;;;;;;16.87;11.80;;;4.60;99.90;;;;;;5068746;28;20177;-57
2021/01/01 04:35:16;;;;;;;16.60;12.70;;;4.30;99.90;;;;;;5068542;28;20194;-58
2021/01/01 04:37:42;;;;;;;18.33;11.90;;;4.50;99.90;;;;;;5068350;28;20233;-58
2021/01/01 04:40:08;;;;;;;26.03;14.73;;;4.40;99.90;;;;;;5062852;28;20190;-59
2021/01/01 04:42:36;;;;;;;15.20;10.73;;;4.30;99.90;;;;;;5065358;28;20193;-59
2021/01/01 04:45:05;;;;;;;16.77;12.82;;;4.40;99.90;;;;;;5067752;28;20651;-58
2021/01/01 04:47:32;;;;;;;18.15;13.98;;;4.90;99.90;;;;;;5068004;28;20252;-58
2021/01/01 04:50:01;;;;;;;15.95;12.25;;;4.40;99.90;;;;;;5068092;28;20209;-58
2021/01/01 04:52:31;;;;;;;16.65;12.05;;;4.50;99.90;;;;;;5068158;28;20184;-59
2021/01/01 04:54:59;;;;;;;14.32;11.57;;;4.50;99.90;;;;;;5068085;28;20655;-59
2021/01/01 04:57:24;;;;;;;15.85;10.80;;;4.20;99.90;;;;;;5068086;28;20209;-59
2021/01/01 04:59:50;;;;;;;15.00;10.93;;;5.10;99.90;;;;;;5068014;28;20195;-59
2021/01/01 05:02:15;;;;;;;14.80;11.10;;;5.00;99.90;;;;;;5063570;28;20663;-59
2021/01/01 05:04:45;;;;;;;15.47;11.13;;;5.00;99.90;;;;;;5061154;28;20185;-59
2021/01/01 05:07:18;;;;;;;15.18;11.10;;;4.90;99.90;;;;;;5067858;28;20296;-59
2021/01/01 05:09:44;;;;;;;14.05;11.05;;;4.80;99.90;;;;;;5067872;28;20209;-59
2021/01/01 05:12:10;;;;;;;15.70;11.20;;;4.90;99.90;;;;;;5068287;28;20516;-59
2021/01/01 05:14:37;;;;;;;17.92;12.25;;;5.10;99.90;;;;;;5068065;28;20433;-59
2021/01/01 05:17:03;;;;;;;13.70;10.98;;;4.90;99.90;;;;;;5067599;28;20193;-58
2021/01/01 05:19:36;;;;;;;15.10;11.50;;;4.70;99.90;;;;;;5061927;28;20186;-59
2021/01/01 05:22:07;;;;;;;17.15;12.50;;;4.50;99.90;;;;;;5067996;28;20189;-59
2021/01/01 05:24:37;;;;;;;17.33;13.48;;;4.50;99.90;;;;;;5068025;28;20771;-59
2021/01/01 05:27:10;;;;;;;15.93;12.02;;;4.50;99.90;;;;;;5067886;28;20217;-59
2021/01/01 05:29:57;;;;;;;16.80;13.68;;;4.30;99.90;;;;;;5067447;28;20205;-58
2021/01/01 05:32:25;;;;;;;18.02;12.32;;;4.50;99.90;;;;;;5069217;28;20563;-59
2021/01/01 05:34:52;;;;;;;14.52;11.18;;;4.30;99.90;;;;;;5067725;28;20184;-58
2021/01/01 05:37:38;;;;;;;15.80;13.35;;;4.60;99.90;;;;;;5066989;28;20212;-59
2021/01/01 05:40:09;;;;;;;16.25;12.30;;;4.40;99.90;;;;;;5067174;28;20205;-59
2021/01/01 05:42:36;;;;;;;17.90;12.60;;;4.50;99.90;;;;;;5077649;28;20189;-59
2021/01/01 05:45:12;;;;;;;16.23;12.88;;;4.60;99.90;;;;;;5057768;28;20181;-59
2021/01/01 05:47:38;;;;;;;16.55;12.57;;;4.70;99.90;;;;;;5067488;28;20225;-59
2021/01/01 05:50:04;;;;;;;15.73;12.87;;;4.60;99.90;;;;;;5067476;28;20820;-59
2021/01/01 05:52:30;;;;;;;19.50;12.80;;;4.50;99.90;;;;;;5067596;28;20184;-59
2021/01/01 05:55:00;;;;;;;18.10;13.97;;;4.60;99.90;;;;;;5067981;28;20435;-58
2021/01/01 05:57:39;;;;;;;18.52;13.65;;;4.50;99.90;;;;;;5052800;28;20455;-58
2021/01/01 06:00:11;;;;;;;19.25;13.55;;;4.50;99.90;;;;;;5065843;28;20334;-59
2021/01/01 06:02:41;;;;;;;16.10;12.45;;;4.70;99.90;;;;;;5071579;28;20180;-59
2021/01/01 06:05:11;;;;;;;17.45;13.63;;;4.80;99.90;;;;;;5071514;28;20225;-59
2021/01/01 06:07:39;;;;;;;15.77;11.77;;;5.00;99.90;;;;;;5071087;28;20209;-59
2021/01/01 06:10:07;;;;;;;11.73;9.93;;;5.10;99.90;;;;;;5069885;28;20213;-59
2021/01/01 06:12:38;;;;;;;12.73;9.80;;;5.10;99.90;;;;;;5071478;28;20183;-59
2021/01/01 06:15:06;;;;;;;13.00;9.90;;;5.20;99.90;;;;;;5071359;28;20182;-59
2021/01/01 06:17:53;;;;;;;9.38;8.00;;;4.90;99.90;;;;;;5082504;28;20242;-59
2021/01/01 06:20:21;;;;;;;10.07;8.23;;;4.70;99.90;;;;;;5058816;28;20214;-59
2021/01/01 06:22:49;;;;;;;8.23;7.30;;;4.80;99.90;;;;;;5058627;28;20187;-59
2021/01/01 06:25:15;;;;;;;8.90;7.82;;;4.70;99.90;;;;;;5062249;28;20189;-59
2021/01/01 06:27:41;;;;;;;7.38;6.57;;;4.60;99.90;;;;;;5065477;28;20197;-59
2021/01/01 06:30:12;;;;;;;9.18;7.55;;;4.60;99.90;;;;;;5070427;28;20209;-59
2021/01/01 06:32:38;;;;;;;9.98;7.55;;;4.50;99.90;;;;;;5070500;28;20185;-59
2021/01/01 06:35:22;;;;;;;8.20;6.70;;;4.60;99.90;;;;;;5070816;28;20196;-59
2021/01/01 06:37:49;;;;;;;8.38;6.82;;;4.60;99.90;;;;;;5070369;28;20598;-59
2021/01/01 06:40:21;;;;;;;9.10;6.50;;;4.60;99.90;;;;;;5070535;28;20190;-59
2021/01/01 06:42:50;;;;;;;8.20;6.85;;;4.70;99.90;;;;;;5070652;28;20185;-58
2021/01/01 06:45:43;;;;;;;7.57;6.80;;;4.50;99.90;;;;;;5069730;28;20246;-59
2021/01/01 06:48:20;;;;;;;7.90;6.50;;;4.50;99.90;;;;;;5083827;28;20778;-58
2021/01/01 06:50:52;;;;;;;6.55;5.65;;;4.50;99.90;;;;;;5074881;28;20909;-57
2021/01/01 06:53:27;;;;;;;8.13;6.35;;;4.40;99.90;;;;;;5070443;28;20185;-59
2021/01/01 06:56:06;;;;;;;7.10;5.78;;;4.40;99.90;;;;;;5070650;28;20599;-59
2021/01/01 06:58:31;;;;;;;7.93;5.63;;;4.40;99.90;;;;;;5069214;28;20213;-58
2021/01/01 07:00:57;;;;;;;7.10;5.97;;;4.40;99.90;;;;;;5052992;28;20280;-59
2021/01/01 07:03:28;;;;;;;7.07;5.80;;;4.30;99.90;;;;;;5070301;28;20193;-58
2021/01/01 07:06:01;;;;;;;6.95;5.68;;;4.50;99.90;;;;;;5070511;28;20193;-58
2021/01/01 07:08:42;;;;;;;6.88;5.82;;;4.40;99.90;;;;;;5068395;28;20228;-59
2021/01/01 07:11:10;;;;;;;8.30;6.32;;;4.40;99.90;;;;;;5050163;28;20205;-58
2021/01/01 07:13:40;;;;;;;7.03;6.10;;;4.40;99.90;;;;;;5050057;28;20201;-59
2021/01/01 07:16:05;;;;;;;8.40;5.72;;;4.50;99.90;;;;;;5061987;28;20211;-59
2021/01/01 07:18:31;;;;;;;7.87;6.47;;;4.30;99.90;;;;;;5068683;28;20619;-59
2021/01/01 07:21:04;;;;;;;7.80;6.40;;;4.50;99.90;;;;;;5070115;28;20193;-59
2021/01/01 07:23:30;;;;;;;6.78;5.60;;;4.50;99.90;;;;;;5069988;28;20677;-58
2021/01/01 07:25:57;;;;;;;6.75;5.55;;;4.30;99.90;;;;;;5070305;28;20185;-59
2021/01/01 07:28:23;;;;;;;9.27;5.82;;;4.30;99.90;;;;;;5066035;28;20762;-59
2021/01/01 07:30:49;;;;;;;6.60;5.90;;;4.50;99.90;;;;;;5061527;28;20244;-58
2021/01/01 07:33:34;;;;;;;8.50;6.23;;;4.60;99.90;;;;;;5069742;28;20900;-59
2021/01/01 07:36:05;;;;;;;6.80;5.43;;;4.60;99.90;;;;;;5068738;28;20424;-59
2021/01/01 07:38:36;;;;;;;7.93;5.47;;;4.60;99.90;;;;;;5069320;28;20256;-59
2021/01/01 07:41:02;;;;;;;7.35;5.30;;;4.70;99.90;;;;;;5069295;28;20651;-58
2021/01/01 07:43:28;;;;;;;6.85;5.35;;;4.70;99.90;;;;;;5069340;28;20279;-59
2021/01/01 07:46:02;;;;;;;5.77;4.90;;;4.80;99.90;;;;;;5069562;28;20320;-59
2021/01/01 07:48:27;;;;;;;6.97;5.30;;;4.50;99.90;;;;;;5069046;28;20471;-59
2021/01/01 07:51:04;;;;;;;6.33;5.60;;;4.60;99.90;;;;;;5069460;28;20219;-59
2021/01/01 07:53:30;;;;;;;7.70;6.32;;;4.40;99.90;;;;;;5068318;28;20177;-59
2021/01/01 07:56:00;;;;;;;6.57;5.27;;;4.30;99.90;;;;;;5069439;28;20682;-59
2021/01/01 07:58:27;;;;;;;6.65;5.68;;;4.20;99.90;;;;;;5055776;28;20210;-59
2021/01/01 08:01:00;;;;;;;6.50;5.07;;;4.60;99.90;;;;;;5056306;28;20197;-57
2021/01/01 08:03:25;;;;;;;6.05;5.07;;;4.50;99.90;;;;;;5055507;28;20186;-57
2021/01/01 08:05:53;;;;;;;7.20;5.73;;;4.20;99.90;;;;;;5048961;28;20185;-57
2021/01/01 08:08:23;;;;;;;5.68;5.07;;;4.30;99.90;;;;;;5048749;28;20457;-57
2021/01/01 08:10:51;;;;;;;7.40;5.60;;;4.50;99.90;;;;;;5067139;28;20216;-57
2021/01/01 08:13:17;;;;;;;8.45;6.35;;;4.30;99.90;;;;;;5068943;28;20192;-57
2021/01/01 08:15:43;;;;;;;7.07;5.68;;;4.30;99.90;;;;;;5070076;28;20189;-57
2021/01/01 08:18:20;;;;;;;5.13;4.63;;;4.50;99.90;;;;;;5064357;28;20205;-57
2021/01/01 08:20:48;;;;;;;5.07;4.28;;;4.20;99.90;;;;;;5068624;28;20669;-57
2021/01/01 08:23:16;;;;;;;5.32;4.43;;;4.50;99.90;;;;;;5068474;28;20609;-57
2021/01/01 08:25:43;;;;;;;5.82;4.65;;;4.60;99.90;;;;;;5068047;28;20529;-57
2021/01/01 08:28:10;;;;;;;4.40;4.00;;;4.90;99.90;;;;;;5068142;28;20193;-57
2021/01/01 08:30:38;;;;;;;4.90;4.43;;;4.80;99.90;;;;;;5069798;28;20240;-57
2021/01/01 08:33:05;;;;;;;5.28;4.78;;;4.60;99.90;;;;;;5068400;28;20185;-57
2021/01/01 08:35:31;;;;;;;5.97;4.80;;;4.80;99.90;;;;;;5068343;28;20181;-57
2021/01/01 08:37:57;;;;;;;4.33;3.80;;;4.60;99.90;;;;;;5068251;28;20252;-57
2021/01/01 08:40:23;;;;;;;4.37;3.97;;;4.60;99.90;;;;;;5068029;28;20432;-57
2021/01/01 08:42:55;;;;;;;3.87;3.53;;;4.50;99.90;;;;;;5067359;28;20193;-57
2021/01/01 08:45:29;;;;;;;3.08;2.78;;;4.50;99.90;;;;;;5068441;28;20208;-57
2021/01/01 08:47:54;;;;;;;3.97;3.33;;;4.90;99.90;;;;;;5067961;28;20225;-57
2021/01/01 08:50:25;;;;;;;3.60;3.30;;;4.60;99.90;;;;;;5068079;28;20755;-57
2021/01/01 08:53:12;;;;;;;4.68;3.55;;;5.10;99.90;;;;;;5068232;28;20205;-57
2021/01/01 08:55:38;;;;;;;3.90;3.45;;;4.90;99.90;;;;;;5067894;28;20211;-57
2021/01/01 08:58:11;;;;;;;3.55;3.25;;;4.90;99.90;;;;;;5068289;28;20205;-57
2021/01/01 09:00:40;;;;;;;3.60;3.30;;;5.00;99.90;;;;;;5065369;28;20191;-58
2021/01/01 09:03:06;;;;;;;3.28;2.97;;;5.00;99.90;;;;;;5068285;28;20631;-58
2021/01/01 09:05:32;;;;;;;3.05;2.85;;;5.10;99.90;;;;;;5067896;28;20657;-58
2021/01/01 09:08:09;;;;;;;3.50;3.10;;;5.20;99.90;;;;;;5067976;28;20214;-58
2021/01/01 09:10:36;;;;;;;2.75;2.55;;;5.10;99.90;;;;;;5069171;28;20216;-58
2021/01/01 09:13:21;;;;;;;2.95;2.40;;;4.50;99.90;;;;;;5067834;28;20468;-58
2021/01/01 09:16:13;;;;;;;4.07;2.92;;;5.20;99.90;;;;;;5068446;28;20189;-58
2021/01/01 09:18:39;;;;;;;2.70;2.50;;;5.40;99.90;;;;;;5059426;28;20605;-57
2021/01/01 09:21:09;;;;;;;2.67;2.47;;;5.40;99.90;;;;;;5068056;28;20738;-57
2021/01/01 09:23:34;;;;;;;2.80;2.60;;;5.30;99.90;;;;;;5067823;28;20197;-58
2021/01/01 09:26:00;;;;;;;2.70;2.20;;;5.50;99.90;;;;;;5059367;28;20185;-57
2021/01/01 09:28:26;;;;;;;2.63;2.43;;;5.40;99.90;;;;;;5067505;28;20628;-58
2021/01/01 09:30:51;;;;;;;2.83;2.50;;;5.30;99.90;;;;;;5070893;28;20275;-57
2021/01/01 09:33:17;;;;;;;2.50;2.30;;;4.70;99.90;;;;;;5071953;28;20429;-57
2021/01/01 09:35:42;;;;;;;3.03;2.73;;;5.50;99.90;;;;;;5071091;28;20182;-57
2021/01/01 09:38:08;;;;;;;3.03;2.73;;;5.40;99.90;;;;;;5078307;28;20233;-57
2021/01/01 09:40:34;;;;;;;3.60;3.10;;;5.60;99.90;;;;;;5073588;28;20191;-58
2021/01/01 09:43:01;;;;;;;2.72;2.53;;;5.60;99.90;;;;;;5071643;28;20516;-58
2021/01/01 09:45:27;;;;;;;3.45;2.95;;;5.70;99.90;;;;;;5071758;28;20195;-58
2021/01/01 09:47:53;;;;;;;3.60;3.30;;;5.60;99.90;;;;;;5070367;28;20229;-57
2021/01/01 09:50:18;;;;;;;3.17;2.87;;;5.70;99.90;;;;;;5071299;28;20206;-57
2021/01/01 09:52:44;;;;;;;3.40;3.10;;;5.70;99.90;;;;;;5070574;28;20184;-58
2021/01/01 09:55:10;;;;;;;3.80;2.97;;;5.90;99.90;;;;;;5071268;28;20337;-58
2021/01/01 09:57:40;;;;;;;4.15;3.55;;;5.70;99.90;;;;;;5071385;28;20733;-58
2021/01/01 10:00:17;;;;;;;3.00;2.80;;;5.70;99.90;;;;;;5070967;28;20280;-58
2021/01/01 10:02:44;;;;;;;4.20;2.97;;;5.90;99.90;;;;;;5071569;28;20263;-57
2021/01/01 10:05:10;;;;;;;3.90;3.20;;;6.20;99.90;;;;;;5070778;28;20195;-58
2021/01/01 10:07:37;;;;;;;3.47;3.17;;;6.30;99.90;;;;;;5070527;28;20258;-58
2021/01/01 10:10:04;;;;;;;4.00;3.10;;;5.80;99.90;;;;;;5077940;28;20220;-58
2021/01/01 10:12:30;;;;;;;4.20;3.58;;;6.20;99.90;;;;;;5061757;28;20236;-58
2021/01/01 10:14:58;;;;;;;3.60;3.30;;;6.00;99.90;;;;;;5070998;28;20609;-58
2021/01/01 10:17:24;;;;;;;3.63;3.05;;;5.70;99.90;;;;;;5071002;28;20456;-58
2021/01/01 10:19:50;;;;;;;4.72;3.63;;;5.80;99.90;;;;;;5070501;28;20673;-58
2021/01/01 10:22:16;;;;;;;3.43;3.13;;;6.30;99.90;;;;;;5071194;28;20192;-58
2021/01/01 10:24:46;;;;;;;4.53;3.60;;;5.90;99.90;;;;;;5070089;28;20461;-58
2021/01/01 10:27:12;;;;;;;3.08;2.78;;;6.20;99.90;;;;;;5071027;28;20227;-59
2021/01/01 10:29:39;;;;;;;2.92;2.25;;;6.40;99.90;;;;;;5070605;28;20191;-58
2021/01/01 10:32:10;;;;;;;3.28;2.97;;;6.40;99.90;;;;;;5071145;28;20191;-58
2021/01/01 10:34:38;;;;;;;3.80;2.65;;;6.40;99.90;;;;;;5070848;28;20180;-59
2021/01/01 10:37:04;;;;;;;2.88;2.65;;;6.50;99.90;;;;;;5071092;28;20258;-58
2021/01/01 10:39:29;;;;;;;3.10;2.80;;;6.20;99.90;;;;;;5070314;28;20281;-59
2021/01/01 10:41:55;;;;;;;3.53;2.93;;;6.20;99.90;;;;;;5069811;28;20193;-59
2021/01/01 10:44:21;;;;;;;3.17;2.87;;;6.20;99.90;;;;;;5071193;28;20634;-58
2021/01/01 10:46:52;;;;;;;3.22;2.67;;;6.00;99.90;;;;;;5070400;28;20692;-59
2021/01/01 10:49:22;;;;;;;5.07;4.07;;;6.20;99.90;;;;;;5070242;28;20217;-59
2021/01/01 10:51:48;;;;;;;2.70;2.50;;;6.10;99.90;;;;;;5070646;28;20262;-58
2021/01/01 10:54:14;;;;;;;2.80;2.42;;;6.30;99.90;;;;;;5070561;28;20270;-58
2021/01/01 10:56:40;;;;;;;2.60;2.40;;;6.30;99.90;;;;;;5070371;28;20245;-58
2021/01/01 10:59:05;;;;;;;4.23;2.80;;;6.30;99.90;;;;;;5069283;28;20181;-59
2021/01/01 11:01:31;;;;;;;3.10;2.73;;;6.20;99.90;;;;;;5070299;28;20215;-58
2021/01/01 11:03:57;;;;;;;2.90;2.47;;;6.40;99.90;;;;;;5070356;28;20650;-58
2021/01/01 11:06:22;;;;;;;3.77;3.30;;;6.30;99.90;;;;;;5070321;28;20189;-58
2021/01/01 11:08:48;;;;;;;2.87;2.63;;;6.10;99.90;;;;;;5070448;28;20239;-58
2021/01/01 11:11:20;;;;;;;2.75;2.55;;;6.40;99.90;;;;;;5069903;28;20654;-58
2021/01/01 11:13:53;;;;;;;3.33;3.00;;;6.10;99.90;;;;;;5070027;28;20681;-58
2021/01/01 12:24:51;;;;;;;3.65;3.25;;;6.00;99.20;;;;;;5072993;28;20784;-58
2021/01/01 12:27:19;;;;;;;3.30;3.00;;;6.00;99.90;;;;;;5068228;28;20273;-58
2021/01/01 12:29:45;;;;;;;4.65;3.20;;;5.70;99.90;;;;;;5068460;28;20235;-58
2021/01/01 12:32:16;;;;;;;4.78;3.33;;;5.80;99.90;;;;;;5068306;28;20186;-57
2021/01/01 12:34:43;;;;;;;3.90;3.38;;;6.00;99.90;;;;;;5068470;28;20197;-59
2021/01/01 12:37:09;;;;;;;3.50;3.20;;;5.90;99.90;;;;;;5068016;28;20203;-58
2021/01/01 12:39:34;;;;;;;3.88;3.33;;;5.90;99.70;;;;;;5068092;28;20195;-59
2021/01/01 12:42:02;;;;;;;3.03;2.70;;;5.80;99.90;;;;;;5067539;28;20218;-59
2021/01/01 12:44:27;;;;;;;4.30;3.40;;;5.90;99.90;;;;;;5068439;28;20184;-59
2021/01/01 12:46:53;;;;;;;4.30;3.50;;;6.20;99.90;;;;;;5068076;28;20249;-58
2021/01/01 12:49:19;;;;;;;4.73;4.03;;;6.10;99.90;;;;;;5069102;28;20231;-58
2021/01/01 12:51:45;;;;;;;4.28;3.25;;;6.30;99.90;;;;;;5067537;28;20211;-59
2021/01/01 12:54:11;;;;;;;4.33;3.90;;;6.50;99.90;;;;;;5067976;28;20181;-58
2021/01/01 12:56:37;;;;;;;3.92;3.40;;;6.50;99.50;;;;;;5068019;28;20437;-58
2021/01/01 12:59:02;;;;;;;3.57;3.17;;;6.70;98.60;;;;;;5066881;28;20242;-59
2021/01/01 13:01:31;;;;;;;4.07;3.63;;;6.60;98.70;;;;;;5068058;28;20188;-59
2021/01/01 13:03:57;;;;;;;3.25;2.95;;;6.60;98.50;;;;;;5067285;28;20435;-60
2021/01/01 13:06:23;;;;;;;4.05;3.17;;;6.60;98.60;;;;;;5054207;28;20654;-58
2021/01/01 13:08:49;;;;;;;4.90;4.40;;;6.80;98.50;;;;;;5067264;28;20192;-59
2021/01/01 13:11:14;;;;;;;4.17;3.37;;;6.70;99.10;;;;;;5067494;28;20691;-59
2021/01/01 13:13:40;;;;;;;4.07;3.63;;;6.90;98.90;;;;;;5067477;28;20192;-59
2021/01/01 13:16:05;;;;;;;4.23;3.83;;;6.60;99.00;;;;;;5055013;28;20601;-59
2021/01/01 13:18:31;;;;;;;4.83;4.33;;;6.40;99.40;;;;;;5067082;28;20201;-58
2021/01/01 13:20:57;;;;;;;5.10;3.95;;;6.60;99.90;;;;;;5067067;28;20275;-58
2021/01/01 13:23:23;;;;;;;4.77;3.80;;;6.10;99.70;;;;;;5067507;28;20656;-58
2021/01/01 13:25:48;;;;;;;4.10;3.70;;;6.40;99.50;;;;;;5067779;28;20530;-59
2021/01/01 13:28:14;;;;;;;4.90;3.80;;;6.60;99.00;;;;;;5067446;28;20199;-59
2021/01/01 13:30:40;;;;;;;3.73;3.37;;;6.40;98.90;;;;;;5067372;28;20629;-58
2021/01/01 13:33:05;;;;;;;4.30;3.90;;;6.70;98.80;;;;;;5066882;28;20212;-60
2021/01/01 13:35:31;;;;;;;4.83;4.00;;;6.50;98.60;;;;;;5067814;28;20229;-58
2021/01/01 13:37:57;;;;;;;5.13;4.40;;;6.60;98.60;;;;;;5082104;28;20278;-58
2021/01/01 13:40:24;;;;;;;6.43;4.28;;;6.40;98.90;;;;;;5067518;28;20199;-58
2021/01/01 13:42:52;;;;;;;4.50;4.05;;;6.10;99.40;;;;;;5067432;28;20194;-58
2021/01/01 13:45:18;;;;;;;5.63;4.78;;;5.70;99.00;;;;;;5067644;28;20188;-58
2021/01/01 13:47:43;;;;;;;4.10;3.70;;;6.30;99.50;;;;;;5067187;28;20252;-59
2021/01/01 13:50:10;;;;;;;4.93;3.93;;;6.40;99.70;;;;;;5054001;28;20234;-59
2021/01/01 13:52:36;;;;;;;3.92;3.40;;;6.30;98.70;;;;;;5066634;28;20249;-59
2021/01/01 13:55:02;;;;;;;5.33;4.30;;;6.70;98.10;;;;;;5067789;28;20191;-59
2021/01/01 13:57:27;;;;;;;5.40;4.17;;;6.50;98.50;;;;;;5068489;28;20217;-59
2021/01/01 13:59:53;;;;;;;6.27;4.70;;;6.40;98.60;;;;;;5054859;28;20468;-59
2021/01/01 14:02:18;;;;;;;4.13;3.73;;;6.50;98.30;;;;;;5048486;28;20646;-58